sensor_id;sensor_type;location;lat;lon;timestamp;P1;durP1;ratioP1;P2;durP2;ratioP2
6306;SDS011;3186;54.062;9.962;2023-08-07T00:00:47;3.57;;;1.80;;
6306;SDS011;3186;54.062;9.962;2023-08-07T00:03:12;2.60;;;1.90;;
6306;SDS011;3186;54.062;9.962;2023-08-07T00:05:47;4.07;;;2.17;;
6306;SDS011;3186;54.062;9.962;2023-08-07T00:08:13;1.80;;;1.70;;
6306;SDS011;3186;54.062;9.962;2023-08-07T00:10:39;7.50;;;2.10;;
6306;SDS011;3186;54.062;9.962;2023-08-07T00:13:05;2.43;;;1.60;;
6306;SDS011;3186;54.062;9.962;2023-08-07T00:15:31;4.40;;;1.97;;
6306;SDS011;3186;54.062;9.962;2023-08-07T00:17:58;4.60;;;2.03;;
6306;SDS011;3186;54.062;9.962;2023-08-07T00:20:25;3.03;;;1.90;;
6306;SDS011;3186;54.062;9.962;2023-08-07T00:22:50;3.37;;;1.60;;
6306;SDS011;3186;54.062;9.962;2023-08-07T00:25:16;1.67;;;1.57;;
6306;SDS011;3186;54.062;9.962;2023-08-07T00:27:42;2.80;;;1.80;;
6306;SDS011;3186;54.062;9.962;2023-08-07T00:30:08;2.43;;;1.90;;
6306;SDS011;3186;54.062;9.962;2023-08-07T00:32:34;3.30;;;1.83;;
6306;SDS011;3186;54.062;9.962;2023-08-07T00:35:00;2.03;;;1.83;;
6306;SDS011;3186;54.062;9.962;2023-08-07T00:37:26;3.20;;;2.20;;
6306;SDS011;3186;54.062;9.962;2023-08-07T00:39:52;2.93;;;1.90;;
6306;SDS011;3186;54.062;9.962;2023-08-07T00:42:18;1.97;;;1.83;;
6306;SDS011;3186;54.062;9.962;2023-08-07T00:44:44;1.63;;;1.53;;
6306;SDS011;3186;54.062;9.962;2023-08-07T00:47:10;2.43;;;1.53;;
6306;SDS011;3186;54.062;9.962;2023-08-07T00:49:36;1.80;;;1.63;;
6306;SDS011;3186;54.062;9.962;2023-08-07T00:52:02;4.00;;;1.50;;
6306;SDS011;3186;54.062;9.962;2023-08-07T00:54:29;3.10;;;1.63;;
6306;SDS011;3186;54.062;9.962;2023-08-07T00:56:56;5.10;;;1.80;;
6306;SDS011;3186;54.062;9.962;2023-08-07T00:59:31;2.03;;;1.70;;
6306;SDS011;3186;54.062;9.962;2023-08-07T01:01:58;5.60;;;1.73;;
6306;SDS011;3186;54.062;9.962;2023-08-07T01:04:25;1.90;;;1.67;;
6306;SDS011;3186;54.062;9.962;2023-08-07T01:06:51;2.97;;;1.60;;
6306;SDS011;3186;54.062;9.962;2023-08-07T01:09:17;4.63;;;1.60;;
6306;SDS011;3186;54.062;9.962;2023-08-07T01:11:48;1.63;;;1.53;;
6306;SDS011;3186;54.062;9.962;2023-08-07T01:16:59;1.63;;;1.33;;
6306;SDS011;3186;54.062;9.962;2023-08-07T01:19:30;5.00;;;1.97;;
6306;SDS011;3186;54.062;9.962;2023-08-07T01:24:40;3.23;;;1.90;;
6306;SDS011;3186;54.062;9.962;2023-08-07T01:32:11;1.63;;;1.40;;
6306;SDS011;3186;54.062;9.962;2023-08-07T01:34:40;3.33;;;1.43;;
6306;SDS011;3186;54.062;9.962;2023-08-07T01:37:07;3.17;;;1.80;;
6306;SDS011;3186;54.062;9.962;2023-08-07T01:39:35;2.37;;;1.67;;
6306;SDS011;3186;54.062;9.962;2023-08-07T01:42:02;3.27;;;1.73;;
6306;SDS011;3186;54.062;9.962;2023-08-07T01:44:30;4.77;;;1.80;;
6306;SDS011;3186;54.062;9.962;2023-08-07T01:46:56;2.30;;;1.60;;
6306;SDS011;3186;54.062;9.962;2023-08-07T01:49:22;1.47;;;1.37;;
6306;SDS011;3186;54.062;9.962;2023-08-07T01:51:48;2.40;;;1.47;;
6306;SDS011;3186;54.062;9.962;2023-08-07T01:54:14;4.80;;;1.87;;
6306;SDS011;3186;54.062;9.962;2023-08-07T01:56:40;2.53;;;1.77;;
6306;SDS011;3186;54.062;9.962;2023-08-07T01:59:06;1.73;;;1.53;;
6306;SDS011;3186;54.062;9.962;2023-08-07T02:01:31;3.60;;;1.70;;
6306;SDS011;3186;54.062;9.962;2023-08-07T02:03:57;2.27;;;1.70;;
6306;SDS011;3186;54.062;9.962;2023-08-07T02:06:24;3.80;;;1.63;;
6306;SDS011;3186;54.062;9.962;2023-08-07T02:08:50;2.57;;;1.50;;
6306;SDS011;3186;54.062;9.962;2023-08-07T02:11:16;7.13;;;1.60;;
6306;SDS011;3186;54.062;9.962;2023-08-07T02:13:42;1.80;;;1.47;;
6306;SDS011;3186;54.062;9.962;2023-08-07T02:16:08;1.77;;;1.57;;
6306;SDS011;3186;54.062;9.962;2023-08-07T02:18:34;2.63;;;1.73;;
6306;SDS011;3186;54.062;9.962;2023-08-07T02:21:00;4.27;;;2.10;;
6306;SDS011;3186;54.062;9.962;2023-08-07T02:23:26;3.00;;;1.83;;
6306;SDS011;3186;54.062;9.962;2023-08-07T02:25:54;1.93;;;1.47;;
6306;SDS011;3186;54.062;9.962;2023-08-07T02:28:20;2.43;;;1.50;;
6306;SDS011;3186;54.062;9.962;2023-08-07T02:30:46;1.87;;;1.63;;
6306;SDS011;3186;54.062;9.962;2023-08-07T02:33:14;3.00;;;2.00;;
6306;SDS011;3186;54.062;9.962;2023-08-07T02:35:40;4.03;;;2.10;;
6306;SDS011;3186;54.062;9.962;2023-08-07T02:38:05;2.60;;;1.80;;
6306;SDS011;3186;54.062;9.962;2023-08-07T02:40:31;7.30;;;1.97;;
6306;SDS011;3186;54.062;9.962;2023-08-07T02:42:57;2.93;;;2.17;;
6306;SDS011;3186;54.062;9.962;2023-08-07T02:45:23;2.93;;;1.67;;
6306;SDS011;3186;54.062;9.962;2023-08-07T02:47:49;6.50;;;2.30;;
6306;SDS011;3186;54.062;9.962;2023-08-07T02:50:14;2.27;;;1.93;;
6306;SDS011;3186;54.062;9.962;2023-08-07T02:52:40;2.77;;;2.00;;
6306;SDS011;3186;54.062;9.962;2023-08-07T02:55:06;4.87;;;1.53;;
6306;SDS011;3186;54.062;9.962;2023-08-07T02:57:32;3.73;;;2.10;;
6306;SDS011;3186;54.062;9.962;2023-08-07T02:59:58;3.43;;;2.10;;
6306;SDS011;3186;54.062;9.962;2023-08-07T03:02:24;3.07;;;1.73;;
6306;SDS011;3186;54.062;9.962;2023-08-07T03:04:50;6.60;;;2.00;;
6306;SDS011;3186;54.062;9.962;2023-08-07T03:07:16;5.70;;;1.60;;
6306;SDS011;3186;54.062;9.962;2023-08-07T03:09:45;4.03;;;2.23;;
6306;SDS011;3186;54.062;9.962;2023-08-07T03:12:12;4.50;;;1.90;;
6306;SDS011;3186;54.062;9.962;2023-08-07T03:14:38;2.97;;;2.00;;
6306;SDS011;3186;54.062;9.962;2023-08-07T03:17:03;3.00;;;1.90;;
6306;SDS011;3186;54.062;9.962;2023-08-07T03:19:29;6.00;;;1.97;;
6306;SDS011;3186;54.062;9.962;2023-08-07T03:21:55;4.17;;;2.23;;
6306;SDS011;3186;54.062;9.962;2023-08-07T03:24:22;5.30;;;2.23;;
6306;SDS011;3186;54.062;9.962;2023-08-07T03:26:48;6.67;;;2.07;;
6306;SDS011;3186;54.062;9.962;2023-08-07T03:29:14;2.30;;;2.10;;
6306;SDS011;3186;54.062;9.962;2023-08-07T03:31:41;2.27;;;2.07;;
6306;SDS011;3186;54.062;9.962;2023-08-07T03:34:07;1.83;;;1.73;;
6306;SDS011;3186;54.062;9.962;2023-08-07T03:36:32;3.90;;;2.40;;
6306;SDS011;3186;54.062;9.962;2023-08-07T03:38:58;2.10;;;1.77;;
6306;SDS011;3186;54.062;9.962;2023-08-07T03:41:24;3.37;;;2.03;;
6306;SDS011;3186;54.062;9.962;2023-08-07T03:43:50;7.23;;;2.10;;
6306;SDS011;3186;54.062;9.962;2023-08-07T03:46:16;2.97;;;1.90;;
6306;SDS011;3186;54.062;9.962;2023-08-07T03:48:42;3.67;;;2.00;;
6306;SDS011;3186;54.062;9.962;2023-08-07T03:51:08;2.67;;;1.80;;
6306;SDS011;3186;54.062;9.962;2023-08-07T03:53:40;2.63;;;1.90;;
6306;SDS011;3186;54.062;9.962;2023-08-07T03:56:06;7.30;;;2.40;;
6306;SDS011;3186;54.062;9.962;2023-08-07T03:58:32;3.80;;;2.13;;
6306;SDS011;3186;54.062;9.962;2023-08-07T04:00:59;2.73;;;1.90;;
6306;SDS011;3186;54.062;9.962;2023-08-07T04:03:25;6.13;;;2.03;;
6306;SDS011;3186;54.062;9.962;2023-08-07T04:05:52;5.23;;;2.37;;
6306;SDS011;3186;54.062;9.962;2023-08-07T04:08:19;4.53;;;2.10;;
6306;SDS011;3186;54.062;9.962;2023-08-07T04:10:45;5.33;;;2.13;;
6306;SDS011;3186;54.062;9.962;2023-08-07T04:13:11;3.00;;;1.83;;
6306;SDS011;3186;54.062;9.962;2023-08-07T04:15:37;5.60;;;2.17;;
6306;SDS011;3186;54.062;9.962;2023-08-07T04:18:03;3.93;;;2.00;;
6306;SDS011;3186;54.062;9.962;2023-08-07T04:20:28;3.97;;;2.07;;
6306;SDS011;3186;54.062;9.962;2023-08-07T04:22:54;4.90;;;2.10;;
6306;SDS011;3186;54.062;9.962;2023-08-07T04:25:20;3.27;;;1.87;;
6306;SDS011;3186;54.062;9.962;2023-08-07T04:27:46;9.67;;;2.30;;
6306;SDS011;3186;54.062;9.962;2023-08-07T04:30:12;4.43;;;2.13;;
6306;SDS011;3186;54.062;9.962;2023-08-07T04:32:37;3.37;;;2.10;;
6306;SDS011;3186;54.062;9.962;2023-08-07T04:35:03;3.40;;;1.87;;
6306;SDS011;3186;54.062;9.962;2023-08-07T04:37:30;4.13;;;1.97;;
6306;SDS011;3186;54.062;9.962;2023-08-07T04:39:55;2.53;;;1.87;;
6306;SDS011;3186;54.062;9.962;2023-08-07T04:42:22;6.83;;;2.37;;
6306;SDS011;3186;54.062;9.962;2023-08-07T04:44:47;8.73;;;2.60;;
6306;SDS011;3186;54.062;9.962;2023-08-07T04:47:13;5.03;;;2.17;;
6306;SDS011;3186;54.062;9.962;2023-08-07T04:49:39;4.53;;;2.10;;
6306;SDS011;3186;54.062;9.962;2023-08-07T04:52:04;3.87;;;2.30;;
6306;SDS011;3186;54.062;9.962;2023-08-07T04:54:30;5.17;;;1.93;;
6306;SDS011;3186;54.062;9.962;2023-08-07T04:56:56;4.03;;;2.10;;
6306;SDS011;3186;54.062;9.962;2023-08-07T04:59:21;4.20;;;2.23;;
6306;SDS011;3186;54.062;9.962;2023-08-07T05:01:47;5.10;;;2.20;;
6306;SDS011;3186;54.062;9.962;2023-08-07T05:04:13;8.20;;;2.30;;
6306;SDS011;3186;54.062;9.962;2023-08-07T05:06:39;9.30;;;2.50;;
6306;SDS011;3186;54.062;9.962;2023-08-07T05:09:05;5.57;;;2.50;;
6306;SDS011;3186;54.062;9.962;2023-08-07T05:11:31;9.40;;;2.47;;
6306;SDS011;3186;54.062;9.962;2023-08-07T05:13:58;11.27;;;3.33;;
6306;SDS011;3186;54.062;9.962;2023-08-07T05:16:24;5.27;;;2.67;;
6306;SDS011;3186;54.062;9.962;2023-08-07T05:18:50;12.30;;;3.27;;
6306;SDS011;3186;54.062;9.962;2023-08-07T05:21:16;12.07;;;2.83;;
6306;SDS011;3186;54.062;9.962;2023-08-07T05:23:51;4.80;;;2.20;;
6306;SDS011;3186;54.062;9.962;2023-08-07T05:26:29;11.97;;;3.23;;
6306;SDS011;3186;54.062;9.962;2023-08-07T05:28:58;10.63;;;2.70;;
6306;SDS011;3186;54.062;9.962;2023-08-07T05:31:24;9.93;;;3.20;;
6306;SDS011;3186;54.062;9.962;2023-08-07T05:33:59;8.37;;;2.93;;
6306;SDS011;3186;54.062;9.962;2023-08-07T05:37:05;11.00;;;2.60;;
6306;SDS011;3186;54.062;9.962;2023-08-07T05:39:31;10.30;;;2.80;;
6306;SDS011;3186;54.062;9.962;2023-08-07T05:41:57;7.70;;;2.93;;
6306;SDS011;3186;54.062;9.962;2023-08-07T05:44:24;7.60;;;3.20;;
6306;SDS011;3186;54.062;9.962;2023-08-07T05:46:50;11.63;;;2.53;;
6306;SDS011;3186;54.062;9.962;2023-08-07T05:49:16;13.90;;;3.80;;
6306;SDS011;3186;54.062;9.962;2023-08-07T05:51:41;8.13;;;2.73;;
6306;SDS011;3186;54.062;9.962;2023-08-07T05:54:07;10.17;;;3.03;;
6306;SDS011;3186;54.062;9.962;2023-08-07T05:56:33;14.43;;;4.13;;
6306;SDS011;3186;54.062;9.962;2023-08-07T05:58:59;9.77;;;3.50;;
6306;SDS011;3186;54.062;9.962;2023-08-07T06:01:25;7.13;;;3.57;;
6306;SDS011;3186;54.062;9.962;2023-08-07T06:04:00;12.07;;;4.03;;
6306;SDS011;3186;54.062;9.962;2023-08-07T06:06:26;12.00;;;3.60;;
6306;SDS011;3186;54.062;9.962;2023-08-07T06:08:54;9.87;;;3.90;;
6306;SDS011;3186;54.062;9.962;2023-08-07T06:11:20;13.40;;;3.97;;
6306;SDS011;3186;54.062;9.962;2023-08-07T06:13:46;13.70;;;3.80;;
6306;SDS011;3186;54.062;9.962;2023-08-07T06:16:12;10.63;;;4.13;;
6306;SDS011;3186;54.062;9.962;2023-08-07T06:18:38;16.27;;;4.67;;
6306;SDS011;3186;54.062;9.962;2023-08-07T06:21:04;14.47;;;4.07;;
6306;SDS011;3186;54.062;9.962;2023-08-07T06:23:32;15.97;;;4.03;;
6306;SDS011;3186;54.062;9.962;2023-08-07T06:25:59;14.20;;;4.37;;
6306;SDS011;3186;54.062;9.962;2023-08-07T06:28:29;11.47;;;4.17;;
6306;SDS011;3186;54.062;9.962;2023-08-07T06:31:05;15.70;;;4.60;;
6306;SDS011;3186;54.062;9.962;2023-08-07T06:33:33;11.70;;;4.40;;
6306;SDS011;3186;54.062;9.962;2023-08-07T06:35:59;9.03;;;4.07;;
6306;SDS011;3186;54.062;9.962;2023-08-07T06:38:26;17.47;;;4.43;;
6306;SDS011;3186;54.062;9.962;2023-08-07T06:40:51;12.97;;;4.17;;
6306;SDS011;3186;54.062;9.962;2023-08-07T06:43:17;11.90;;;4.63;;
6306;SDS011;3186;54.062;9.962;2023-08-07T06:45:43;16.77;;;5.13;;
6306;SDS011;3186;54.062;9.962;2023-08-07T06:48:12;12.13;;;4.00;;
6306;SDS011;3186;54.062;9.962;2023-08-07T06:50:37;7.87;;;4.57;;
6306;SDS011;3186;54.062;9.962;2023-08-07T06:53:03;14.67;;;4.83;;
6306;SDS011;3186;54.062;9.962;2023-08-07T06:55:29;12.37;;;5.53;;
6306;SDS011;3186;54.062;9.962;2023-08-07T06:57:55;16.10;;;5.00;;
6306;SDS011;3186;54.062;9.962;2023-08-07T07:00:20;11.83;;;4.17;;
6306;SDS011;3186;54.062;9.962;2023-08-07T07:02:46;14.93;;;4.73;;
6306;SDS011;3186;54.062;9.962;2023-08-07T07:05:12;15.20;;;4.60;;
6306;SDS011;3186;54.062;9.962;2023-08-07T07:07:38;12.33;;;4.70;;
6306;SDS011;3186;54.062;9.962;2023-08-07T07:10:04;13.73;;;4.67;;
6306;SDS011;3186;54.062;9.962;2023-08-07T07:12:30;14.50;;;4.63;;
6306;SDS011;3186;54.062;9.962;2023-08-07T07:14:56;18.90;;;4.40;;
6306;SDS011;3186;54.062;9.962;2023-08-07T07:17:22;18.00;;;5.00;;
6306;SDS011;3186;54.062;9.962;2023-08-07T07:19:48;10.90;;;4.07;;
6306;SDS011;3186;54.062;9.962;2023-08-07T07:22:13;20.80;;;5.23;;
6306;SDS011;3186;54.062;9.962;2023-08-07T07:24:40;17.63;;;5.17;;
6306;SDS011;3186;54.062;9.962;2023-08-07T07:27:05;17.40;;;5.00;;
6306;SDS011;3186;54.062;9.962;2023-08-07T07:29:31;18.10;;;5.20;;
6306;SDS011;3186;54.062;9.962;2023-08-07T07:31:57;12.17;;;4.53;;
6306;SDS011;3186;54.062;9.962;2023-08-07T07:34:23;12.13;;;4.70;;
6306;SDS011;3186;54.062;9.962;2023-08-07T07:36:49;12.47;;;3.87;;
6306;SDS011;3186;54.062;9.962;2023-08-07T07:39:16;18.13;;;5.10;;
6306;SDS011;3186;54.062;9.962;2023-08-07T07:41:42;14.23;;;4.90;;
6306;SDS011;3186;54.062;9.962;2023-08-07T07:44:08;16.27;;;5.07;;
6306;SDS011;3186;54.062;9.962;2023-08-07T07:46:34;18.10;;;5.07;;
6306;SDS011;3186;54.062;9.962;2023-08-07T07:49:00;19.73;;;5.10;;
6306;SDS011;3186;54.062;9.962;2023-08-07T07:51:28;9.70;;;4.17;;
6306;SDS011;3186;54.062;9.962;2023-08-07T07:53:54;10.97;;;4.43;;
6306;SDS011;3186;54.062;9.962;2023-08-07T07:56:20;8.73;;;4.33;;
6306;SDS011;3186;54.062;9.962;2023-08-07T07:58:46;16.57;;;4.90;;
6306;SDS011;3186;54.062;9.962;2023-08-07T08:01:12;14.00;;;5.13;;
6306;SDS011;3186;54.062;9.962;2023-08-07T08:03:38;12.77;;;4.77;;
6306;SDS011;3186;54.062;9.962;2023-08-07T08:06:04;13.43;;;4.70;;
6306;SDS011;3186;54.062;9.962;2023-08-07T08:08:30;15.57;;;4.23;;
6306;SDS011;3186;54.062;9.962;2023-08-07T08:10:56;15.70;;;4.87;;
6306;SDS011;3186;54.062;9.962;2023-08-07T08:13:22;14.50;;;4.43;;
6306;SDS011;3186;54.062;9.962;2023-08-07T08:15:48;15.00;;;4.80;;
6306;SDS011;3186;54.062;9.962;2023-08-07T08:18:14;12.77;;;4.80;;
6306;SDS011;3186;54.062;9.962;2023-08-07T08:20:40;13.97;;;5.00;;
6306;SDS011;3186;54.062;9.962;2023-08-07T08:23:06;15.10;;;5.03;;
6306;SDS011;3186;54.062;9.962;2023-08-07T08:25:32;15.20;;;5.10;;
6306;SDS011;3186;54.062;9.962;2023-08-07T08:27:58;18.57;;;4.77;;
6306;SDS011;3186;54.062;9.962;2023-08-07T08:30:25;14.23;;;4.40;;
6306;SDS011;3186;54.062;9.962;2023-08-07T08:32:51;10.53;;;4.73;;
6306;SDS011;3186;54.062;9.962;2023-08-07T08:35:17;14.63;;;5.30;;
6306;SDS011;3186;54.062;9.962;2023-08-07T08:37:42;20.97;;;4.63;;
6306;SDS011;3186;54.062;9.962;2023-08-07T08:40:08;20.20;;;5.43;;
6306;SDS011;3186;54.062;9.962;2023-08-07T08:42:38;18.33;;;5.40;;
6306;SDS011;3186;54.062;9.962;2023-08-07T08:45:05;18.23;;;5.23;;
6306;SDS011;3186;54.062;9.962;2023-08-07T08:47:35;10.63;;;4.83;;
6306;SDS011;3186;54.062;9.962;2023-08-07T08:50:07;11.77;;;4.67;;
6306;SDS011;3186;54.062;9.962;2023-08-07T08:52:36;14.97;;;4.77;;
6306;SDS011;3186;54.062;9.962;2023-08-07T08:55:07;12.50;;;4.30;;
6306;SDS011;3186;54.062;9.962;2023-08-07T08:57:34;15.10;;;4.53;;
6306;SDS011;3186;54.062;9.962;2023-08-07T09:00:02;11.33;;;4.90;;
6306;SDS011;3186;54.062;9.962;2023-08-07T09:02:35;13.83;;;4.73;;
6306;SDS011;3186;54.062;9.962;2023-08-07T09:05:02;8.73;;;4.10;;
6306;SDS011;3186;54.062;9.962;2023-08-07T09:07:28;17.97;;;4.20;;
6306;SDS011;3186;54.062;9.962;2023-08-07T09:09:54;10.17;;;4.17;;
6306;SDS011;3186;54.062;9.962;2023-08-07T09:12:26;9.37;;;4.23;;
6306;SDS011;3186;54.062;9.962;2023-08-07T09:14:54;7.77;;;3.90;;
6306;SDS011;3186;54.062;9.962;2023-08-07T09:17:28;14.77;;;4.50;;
6306;SDS011;3186;54.062;9.962;2023-08-07T09:19:56;13.90;;;4.27;;
6306;SDS011;3186;54.062;9.962;2023-08-07T09:22:23;12.20;;;4.70;;
6306;SDS011;3186;54.062;9.962;2023-08-07T09:24:49;11.80;;;4.70;;
6306;SDS011;3186;54.062;9.962;2023-08-07T09:27:15;13.33;;;4.40;;
6306;SDS011;3186;54.062;9.962;2023-08-07T09:29:41;11.63;;;4.10;;
6306;SDS011;3186;54.062;9.962;2023-08-07T09:32:17;10.70;;;3.97;;
6306;SDS011;3186;54.062;9.962;2023-08-07T09:34:43;14.20;;;4.63;;
6306;SDS011;3186;54.062;9.962;2023-08-07T09:37:09;12.10;;;4.13;;
6306;SDS011;3186;54.062;9.962;2023-08-07T09:39:36;16.60;;;5.20;;
6306;SDS011;3186;54.062;9.962;2023-08-07T09:42:02;14.73;;;4.50;;
6306;SDS011;3186;54.062;9.962;2023-08-07T09:44:38;12.43;;;4.17;;
6306;SDS011;3186;54.062;9.962;2023-08-07T09:49:43;14.73;;;4.33;;
6306;SDS011;3186;54.062;9.962;2023-08-07T09:52:10;17.60;;;4.83;;
6306;SDS011;3186;54.062;9.962;2023-08-07T09:54:39;16.73;;;4.77;;
6306;SDS011;3186;54.062;9.962;2023-08-07T09:57:05;15.57;;;4.40;;
6306;SDS011;3186;54.062;9.962;2023-08-07T09:59:32;17.17;;;4.30;;
6306;SDS011;3186;54.062;9.962;2023-08-07T10:02:01;21.77;;;4.40;;
6306;SDS011;3186;54.062;9.962;2023-08-07T10:04:27;16.17;;;4.60;;
6306;SDS011;3186;54.062;9.962;2023-08-07T10:06:53;18.70;;;5.27;;
6306;SDS011;3186;54.062;9.962;2023-08-07T10:09:20;12.40;;;4.70;;
6306;SDS011;3186;54.062;9.962;2023-08-07T10:11:46;13.33;;;4.73;;
6306;SDS011;3186;54.062;9.962;2023-08-07T10:14:14;10.63;;;4.60;;
6306;SDS011;3186;54.062;9.962;2023-08-07T10:16:41;14.10;;;4.97;;
6306;SDS011;3186;54.062;9.962;2023-08-07T10:19:10;10.67;;;4.17;;
6306;SDS011;3186;54.062;9.962;2023-08-07T10:21:40;13.07;;;4.73;;
6306;SDS011;3186;54.062;9.962;2023-08-07T10:24:07;15.33;;;5.03;;
6306;SDS011;3186;54.062;9.962;2023-08-07T10:26:36;10.30;;;4.17;;
6306;SDS011;3186;54.062;9.962;2023-08-07T10:29:06;13.27;;;4.40;;
6306;SDS011;3186;54.062;9.962;2023-08-07T10:31:36;10.80;;;3.97;;
6306;SDS011;3186;54.062;9.962;2023-08-07T10:34:05;9.67;;;4.00;;
6306;SDS011;3186;54.062;9.962;2023-08-07T10:36:35;8.67;;;4.27;;
6306;SDS011;3186;54.062;9.962;2023-08-07T10:39:08;15.93;;;4.33;;
6306;SDS011;3186;54.062;9.962;2023-08-07T10:41:39;13.30;;;4.00;;
6306;SDS011;3186;54.062;9.962;2023-08-07T10:44:18;13.57;;;3.83;;
6306;SDS011;3186;54.062;9.962;2023-08-07T10:46:54;19.60;;;3.83;;
6306;SDS011;3186;54.062;9.962;2023-08-07T10:52:17;9.20;;;3.80;;
6306;SDS011;3186;54.062;9.962;2023-08-07T10:54:46;8.37;;;4.10;;
6306;SDS011;3186;54.062;9.962;2023-08-07T10:57:15;15.13;;;3.73;;
6306;SDS011;3186;54.062;9.962;2023-08-07T11:02:25;10.53;;;3.80;;
6306;SDS011;3186;54.062;9.962;2023-08-07T11:04:52;17.47;;;3.93;;
6306;SDS011;3186;54.062;9.962;2023-08-07T11:07:29;14.63;;;4.03;;
6306;SDS011;3186;54.062;9.962;2023-08-07T11:09:56;12.70;;;4.00;;
6306;SDS011;3186;54.062;9.962;2023-08-07T11:12:26;11.90;;;3.70;;
6306;SDS011;3186;54.062;9.962;2023-08-07T11:14:56;13.03;;;3.97;;
6306;SDS011;3186;54.062;9.962;2023-08-07T11:17:25;14.80;;;3.50;;
6306;SDS011;3186;54.062;9.962;2023-08-07T11:19:57;11.10;;;4.03;;
6306;SDS011;3186;54.062;9.962;2023-08-07T11:22:24;8.93;;;3.13;;
6306;SDS011;3186;54.062;9.962;2023-08-07T11:24:50;12.00;;;4.03;;
6306;SDS011;3186;54.062;9.962;2023-08-07T11:27:16;9.93;;;3.90;;
6306;SDS011;3186;54.062;9.962;2023-08-07T11:29:44;11.17;;;3.80;;
6306;SDS011;3186;54.062;9.962;2023-08-07T11:32:13;11.27;;;3.37;;
6306;SDS011;3186;54.062;9.962;2023-08-07T11:34:39;11.40;;;3.23;;
6306;SDS011;3186;54.062;9.962;2023-08-07T11:37:05;15.27;;;3.70;;
6306;SDS011;3186;54.062;9.962;2023-08-07T11:39:31;13.07;;;3.03;;
6306;SDS011;3186;54.062;9.962;2023-08-07T11:41:57;7.47;;;3.30;;
6306;SDS011;3186;54.062;9.962;2023-08-07T11:44:23;8.10;;;3.40;;
6306;SDS011;3186;54.062;9.962;2023-08-07T11:46:50;12.67;;;3.47;;
6306;SDS011;3186;54.062;9.962;2023-08-07T11:49:16;6.93;;;3.13;;
6306;SDS011;3186;54.062;9.962;2023-08-07T11:51:43;9.23;;;3.33;;
6306;SDS011;3186;54.062;9.962;2023-08-07T11:54:13;13.80;;;3.23;;
6306;SDS011;3186;54.062;9.962;2023-08-07T11:56:40;9.17;;;3.63;;
6306;SDS011;3186;54.062;9.962;2023-08-07T11:59:08;15.13;;;3.90;;
6306;SDS011;3186;54.062;9.962;2023-08-07T12:01:37;11.97;;;3.90;;
6306;SDS011;3186;54.062;9.962;2023-08-07T12:06:33;12.47;;;3.67;;
6306;SDS011;3186;54.062;9.962;2023-08-07T12:09:00;12.70;;;3.30;;
6306;SDS011;3186;54.062;9.962;2023-08-07T12:11:28;9.03;;;2.80;;
6306;SDS011;3186;54.062;9.962;2023-08-07T12:13:55;5.17;;;2.67;;
6306;SDS011;3186;54.062;9.962;2023-08-07T12:16:21;8.30;;;2.83;;
6306;SDS011;3186;54.062;9.962;2023-08-07T12:18:48;6.03;;;3.00;;
6306;SDS011;3186;54.062;9.962;2023-08-07T12:21:20;12.33;;;3.40;;
6306;SDS011;3186;54.062;9.962;2023-08-07T12:23:50;9.73;;;2.93;;
6306;SDS011;3186;54.062;9.962;2023-08-07T12:26:17;10.80;;;3.30;;
6306;SDS011;3186;54.062;9.962;2023-08-07T12:28:43;9.63;;;3.77;;
6306;SDS011;3186;54.062;9.962;2023-08-07T12:31:09;15.73;;;3.97;;
6306;SDS011;3186;54.062;9.962;2023-08-07T12:33:35;13.17;;;3.50;;
6306;SDS011;3186;54.062;9.962;2023-08-07T12:36:05;7.90;;;3.17;;
6306;SDS011;3186;54.062;9.962;2023-08-07T12:38:31;9.67;;;3.00;;
6306;SDS011;3186;54.062;9.962;2023-08-07T12:40:56;8.33;;;3.27;;
6306;SDS011;3186;54.062;9.962;2023-08-07T12:43:22;9.57;;;3.07;;
6306;SDS011;3186;54.062;9.962;2023-08-07T12:45:48;6.17;;;3.27;;
6306;SDS011;3186;54.062;9.962;2023-08-07T12:48:14;8.93;;;2.90;;
6306;SDS011;3186;54.062;9.962;2023-08-07T12:50:40;9.37;;;3.23;;
6306;SDS011;3186;54.062;9.962;2023-08-07T12:53:06;7.37;;;2.77;;
6306;SDS011;3186;54.062;9.962;2023-08-07T12:55:33;10.43;;;3.17;;
6306;SDS011;3186;54.062;9.962;2023-08-07T12:57:59;7.67;;;3.43;;
6306;SDS011;3186;54.062;9.962;2023-08-07T13:00:25;7.87;;;3.00;;
6306;SDS011;3186;54.062;9.962;2023-08-07T13:02:52;11.00;;;3.43;;
6306;SDS011;3186;54.062;9.962;2023-08-07T13:05:19;8.27;;;3.27;;
6306;SDS011;3186;54.062;9.962;2023-08-07T13:07:46;9.77;;;3.23;;
6306;SDS011;3186;54.062;9.962;2023-08-07T13:10:13;7.57;;;2.80;;
6306;SDS011;3186;54.062;9.962;2023-08-07T13:12:41;9.83;;;2.97;;
6306;SDS011;3186;54.062;9.962;2023-08-07T13:15:09;8.17;;;3.40;;
6306;SDS011;3186;54.062;9.962;2023-08-07T13:17:38;11.70;;;3.43;;
6306;SDS011;3186;54.062;9.962;2023-08-07T13:20:04;11.53;;;3.20;;
6306;SDS011;3186;54.062;9.962;2023-08-07T13:22:36;9.27;;;3.63;;
6306;SDS011;3186;54.062;9.962;2023-08-07T13:25:02;8.03;;;3.30;;
6306;SDS011;3186;54.062;9.962;2023-08-07T13:27:32;6.57;;;2.90;;
6306;SDS011;3186;54.062;9.962;2023-08-07T13:29:59;7.40;;;2.73;;
6306;SDS011;3186;54.062;9.962;2023-08-07T13:32:26;6.60;;;2.73;;
6306;SDS011;3186;54.062;9.962;2023-08-07T13:34:52;9.33;;;2.97;;
6306;SDS011;3186;54.062;9.962;2023-08-07T13:37:18;7.63;;;2.73;;
6306;SDS011;3186;54.062;9.962;2023-08-07T13:39:44;9.83;;;2.97;;
6306;SDS011;3186;54.062;9.962;2023-08-07T13:42:10;8.27;;;3.03;;
6306;SDS011;3186;54.062;9.962;2023-08-07T13:44:36;5.23;;;2.27;;
6306;SDS011;3186;54.062;9.962;2023-08-07T13:47:03;7.97;;;2.50;;
6306;SDS011;3186;54.062;9.962;2023-08-07T13:49:30;5.80;;;2.70;;
6306;SDS011;3186;54.062;9.962;2023-08-07T13:51:56;11.27;;;3.30;;
6306;SDS011;3186;54.062;9.962;2023-08-07T13:54:21;9.40;;;3.33;;
6306;SDS011;3186;54.062;9.962;2023-08-07T13:56:48;8.23;;;3.20;;
6306;SDS011;3186;54.062;9.962;2023-08-07T13:59:15;8.70;;;3.90;;
6306;SDS011;3186;54.062;9.962;2023-08-07T14:01:41;14.07;;;4.30;;
6306;SDS011;3186;54.062;9.962;2023-08-07T14:04:07;10.47;;;4.13;;
6306;SDS011;3186;54.062;9.962;2023-08-07T14:06:33;9.47;;;4.20;;
6306;SDS011;3186;54.062;9.962;2023-08-07T14:08:58;12.67;;;4.47;;
6306;SDS011;3186;54.062;9.962;2023-08-07T14:11:24;10.87;;;4.43;;
6306;SDS011;3186;54.062;9.962;2023-08-07T14:13:55;17.23;;;5.27;;
6306;SDS011;3186;54.062;9.962;2023-08-07T14:16:25;14.37;;;4.60;;
6306;SDS011;3186;54.062;9.962;2023-08-07T14:18:51;12.63;;;4.60;;
6306;SDS011;3186;54.062;9.962;2023-08-07T14:21:17;16.80;;;4.20;;
6306;SDS011;3186;54.062;9.962;2023-08-07T14:23:43;16.63;;;5.07;;
6306;SDS011;3186;54.062;9.962;2023-08-07T14:26:11;13.50;;;4.83;;
6306;SDS011;3186;54.062;9.962;2023-08-07T14:28:37;10.17;;;4.13;;
6306;SDS011;3186;54.062;9.962;2023-08-07T14:31:06;12.77;;;4.40;;
6306;SDS011;3186;54.062;9.962;2023-08-07T14:33:32;12.27;;;4.10;;
6306;SDS011;3186;54.062;9.962;2023-08-07T14:35:58;11.43;;;4.30;;
6306;SDS011;3186;54.062;9.962;2023-08-07T14:38:25;15.03;;;4.17;;
6306;SDS011;3186;54.062;9.962;2023-08-07T14:40:51;11.43;;;3.70;;
6306;SDS011;3186;54.062;9.962;2023-08-07T14:43:16;14.30;;;3.37;;
6306;SDS011;3186;54.062;9.962;2023-08-07T14:45:42;13.33;;;3.90;;
6306;SDS011;3186;54.062;9.962;2023-08-07T14:48:08;10.13;;;4.07;;
6306;SDS011;3186;54.062;9.962;2023-08-07T14:50:34;14.17;;;3.90;;
6306;SDS011;3186;54.062;9.962;2023-08-07T14:53:00;11.73;;;3.93;;
6306;SDS011;3186;54.062;9.962;2023-08-07T14:55:25;16.27;;;3.90;;
6306;SDS011;3186;54.062;9.962;2023-08-07T14:57:51;11.33;;;3.73;;
6306;SDS011;3186;54.062;9.962;2023-08-07T15:00:17;9.27;;;3.83;;
6306;SDS011;3186;54.062;9.962;2023-08-07T15:02:45;16.23;;;4.17;;
6306;SDS011;3186;54.062;9.962;2023-08-07T15:05:11;17.10;;;4.60;;
6306;SDS011;3186;54.062;9.962;2023-08-07T15:07:38;10.77;;;4.07;;
6306;SDS011;3186;54.062;9.962;2023-08-07T15:10:04;12.33;;;4.00;;
6306;SDS011;3186;54.062;9.962;2023-08-07T15:12:30;9.10;;;3.77;;
6306;SDS011;3186;54.062;9.962;2023-08-07T15:14:56;16.53;;;4.10;;
6306;SDS011;3186;54.062;9.962;2023-08-07T15:17:22;16.30;;;3.97;;
6306;SDS011;3186;54.062;9.962;2023-08-07T15:19:48;12.47;;;4.13;;
6306;SDS011;3186;54.062;9.962;2023-08-07T15:22:13;12.10;;;3.47;;
6306;SDS011;3186;54.062;9.962;2023-08-07T15:24:39;11.60;;;3.70;;
6306;SDS011;3186;54.062;9.962;2023-08-07T15:27:05;16.50;;;4.33;;